Time;durP1;ratioP1;P1;durP2;ratioP2;P2;SDS_P1;SDS_P2;PMS_P1;PMS_P2;Temp;Humidity;BMP_temperature;BMP_pressure;BME280_temperature;BME280_humidity;BME280_pressure;Samples;Min_cycle;Max_cycle;Signal;HPM_P1;HPM_P2
2022/08/18 00:02:12;;;;;;;51.55;7.55;;;;;;;;;;5009047;28;20057;-60
2022/08/18 00:04:39;;;;;;;45.80;7.57;;;;;;;;;;5028447;28;20053;-52
2022/08/18 00:07:06;;;;;;;58.40;7.65;;;;;;;;;;5010425;28;20046;-66
2022/08/18 00:09:33;;;;;;;47.33;7.93;;;;;;;;;;5028149;28;20046;-49
2022/08/18 00:12:00;;;;;;;43.88;7.43;;;;;;;;;;5029334;28;20041;-49
2022/08/18 00:14:27;;;;;;;40.20;6.50;;;;;;;;;;5027030;28;20079;-48
2022/08/18 00:16:53;;;;;;;44.35;6.75;;;;;;;;;;5028523;28;20045;-63
2022/08/18 00:19:20;;;;;;;24.30;5.22;;;;;;;;;;5027562;28;20046;-47
2022/08/18 00:21:46;;;;;;;29.83;5.47;;;;;;;;;;5029046;28;20037;-50
2022/08/18 00:24:12;;;;;;;32.88;5.25;;;;;;;;;;5015917;28;20041;-46
2022/08/18 00:26:38;;;;;;;30.38;4.63;;;;;;;;;;5041378;28;20041;-50
2022/08/18 00:29:04;;;;;;;28.85;5.93;;;;;;;;;;5039801;28;20171;-54
2022/08/18 00:31:30;;;;;;;24.10;5.00;;;;;;;;;;5036330;28;20122;-52
2022/08/18 00:33:56;;;;;;;30.02;5.07;;;;;;;;;;5046229;28;20097;-59
2022/08/18 00:36:23;;;;;;;35.83;5.22;;;;;;;;;;5011254;28;20128;-58
2022/08/18 00:38:49;;;;;;;25.98;5.45;;;;;;;;;;5028749;28;20088;-57
2022/08/18 00:41:15;;;;;;;29.75;5.53;;;;;;;;;;5010525;28;20116;-47
2022/08/18 00:43:43;;;;;;;26.00;4.65;;;;;;;;;;5010995;28;20045;-54
2022/08/18 00:46:12;;;;;;;24.65;4.82;;;;;;;;;;5028048;28;20565;-55
2022/08/18 00:48:38;;;;;;;22.23;4.68;;;;;;;;;;5010033;28;20056;-61
2022/08/18 00:51:11;;;;;;;32.95;5.53;;;;;;;;;;5029073;28;20452;-61
2022/08/18 00:53:44;;;;;;;24.77;4.78;;;;;;;;;;5027773;28;20137;-60
2022/08/18 00:56:23;;;;;;;32.33;4.90;;;;;;;;;;5028153;28;20128;-65
2022/08/18 00:58:53;;;;;;;33.97;5.57;;;;;;;;;;5010501;28;20114;-48
2022/08/18 01:01:22;;;;;;;33.63;5.10;;;;;;;;;;5026958;28;20049;-50
2022/08/18 01:03:52;;;;;;;34.92;5.13;;;;;;;;;;5028479;28;20533;-49
2022/08/18 01:06:27;;;;;;;26.65;5.07;;;;;;;;;;5027141;28;20072;-51
2022/08/18 01:08:58;;;;;;;22.95;4.53;;;;;;;;;;5028524;28;20154;-64
2022/08/18 01:11:24;;;;;;;26.23;4.97;;;;;;;;;;5009538;28;20442;-53
2022/08/18 01:13:50;;;;;;;25.50;4.47;;;;;;;;;;5028052;28;20045;-54
2022/08/18 01:21:49;;;;;;;33.67;4.90;;;;;;;;;;5028897;28;20045;-47
2022/08/18 01:24:15;;;;;;;31.83;5.15;;;;;;;;;;5026268;28;20557;-56
2022/08/18 01:26:48;;;;;;;34.97;5.57;;;;;;;;;;5027467;28;20104;-55
2022/08/18 01:29:14;;;;;;;33.40;5.55;;;;;;;;;;5027411;28;20507;-46
2022/08/18 01:31:42;;;;;;;29.65;4.95;;;;;;;;;;5009104;28;20092;-56
2022/08/18 01:34:10;;;;;;;33.22;5.75;;;;;;;;;;5008035;28;20048;-58
2022/08/18 01:36:37;;;;;;;26.60;4.65;;;;;;;;;;5009181;28;20091;-51
2022/08/18 01:39:08;;;;;;;29.23;4.78;;;;;;;;;;5027908;28;20080;-54
2022/08/18 01:41:34;;;;;;;23.85;4.57;;;;;;;;;;5015162;28;20071;-52
2022/08/18 01:44:01;;;;;;;29.20;4.80;;;;;;;;;;5028187;28;20044;-50
2022/08/18 01:46:28;;;;;;;27.17;4.53;;;;;;;;;;5027341;28;20091;-52
2022/08/18 01:48:54;;;;;;;24.38;4.30;;;;;;;;;;5027491;28;20442;-46
2022/08/18 01:51:21;;;;;;;33.35;5.40;;;;;;;;;;5027174;28;20124;-61
2022/08/18 01:53:47;;;;;;;25.77;4.32;;;;;;;;;;5008901;28;20080;-57
2022/08/18 01:56:16;;;;;;;30.00;5.00;;;;;;;;;;5010175;28;20088;-57
2022/08/18 01:58:43;;;;;;;30.40;5.07;;;;;;;;;;5026858;28;20107;-59
2022/08/18 02:01:11;;;;;;;20.95;5.03;;;;;;;;;;5026990;28;20461;-61
2022/08/18 02:03:40;;;;;;;25.08;4.68;;;;;;;;;;5026993;28;20049;-55
2022/08/18 02:06:09;;;;;;;29.80;5.22;;;;;;;;;;5027300;28;20050;-55
2022/08/18 02:08:35;;;;;;;29.50;4.97;;;;;;;;;;5027536;28;20050;-54
2022/08/18 02:11:02;;;;;;;31.50;5.47;;;;;;;;;;5026767;28;20289;-50
2022/08/18 02:13:28;;;;;;;25.10;4.97;;;;;;;;;;5017998;28;20565;-51
2022/08/18 02:15:55;;;;;;;28.17;5.00;;;;;;;;;;5026696;28;20091;-50
2022/08/18 02:18:23;;;;;;;29.88;5.20;;;;;;;;;;5027271;28;20049;-61
2022/08/18 02:20:49;;;;;;;22.48;4.90;;;;;;;;;;5009648;28;20373;-59
2022/08/18 02:23:16;;;;;;;28.77;5.00;;;;;;;;;;5026993;28;20507;-53
2022/08/18 02:25:43;;;;;;;31.00;5.00;;;;;;;;;;5027800;28;20053;-50
2022/08/18 02:28:09;;;;;;;27.05;5.38;;;;;;;;;;5026132;28;20084;-62
2022/08/18 02:30:38;;;;;;;28.02;4.80;;;;;;;;;;5027410;28;20046;-56
2022/08/18 02:33:04;;;;;;;;;;;;;;;;;;5026555;28;20654;-62
2022/08/18 02:35:31;;;;;;;29.88;5.43;;;;;;;;;;5026904;28;20303;-62
2022/08/18 02:38:00;;;;;;;35.38;5.05;;;;;;;;;;5026605;28;20056;-57
2022/08/18 02:40:27;;;;;;;30.80;5.78;;;;;;;;;;5028663;28;20099;-50
2022/08/18 02:42:53;;;;;;;29.23;5.50;;;;;;;;;;5030790;28;20450;-53
2022/08/18 02:45:19;;;;;;;35.58;6.13;;;;;;;;;;5029757;28;20383;-66
2022/08/18 02:47:51;;;;;;;29.58;5.57;;;;;;;;;;5031166;28;20045;-50
2022/08/18 02:50:17;;;;;;;24.10;5.75;;;;;;;;;;5029498;28;20046;-54
2022/08/18 02:52:43;;;;;;;28.40;5.82;;;;;;;;;;5030362;28;20431;-47
2022/08/18 02:55:16;;;;;;;31.23;5.55;;;;;;;;;;5030475;28;20541;-53
2022/08/18 02:57:43;;;;;;;35.00;6.15;;;;;;;;;;5030464;28;20046;-51
2022/08/18 03:00:12;;;;;;;21.95;5.28;;;;;;;;;;5030577;28;20053;-52
2022/08/18 03:02:38;;;;;;;33.50;5.65;;;;;;;;;;5029070;28;20037;-51
2022/08/18 03:05:06;;;;;;;33.58;7.15;;;;;;;;;;5012008;28;20052;-63
2022/08/18 03:07:32;;;;;;;37.08;6.68;;;;;;;;;;5028992;28;20103;-58
2022/08/18 03:09:58;;;;;;;43.65;6.28;;;;;;;;;;5029832;28;20045;-54
2022/08/18 03:12:24;;;;;;;31.38;5.75;;;;;;;;;;5010761;28;20120;-50
2022/08/18 03:14:50;;;;;;;39.33;6.38;;;;;;;;;;5029069;28;20479;-55
2022/08/18 03:17:16;;;;;;;27.25;5.97;;;;;;;;;;5032525;28;20041;-48
2022/08/18 03:19:45;;;;;;;30.98;6.10;;;;;;;;;;5012240;28;20046;-58
2022/08/18 03:22:11;;;;;;;42.97;6.15;;;;;;;;;;5030768;28;20052;-53
2022/08/18 03:24:37;;;;;;;32.78;5.80;;;;;;;;;;5035944;28;20067;-57
2022/08/18 03:27:05;;;;;;;33.42;6.13;;;;;;;;;;5034298;28;20148;-50
2022/08/18 03:29:32;;;;;;;36.67;5.88;;;;;;;;;;5036806;28;20560;-47
2022/08/18 03:31:58;;;;;;;45.25;5.72;;;;;;;;;;5033515;28;20400;-56
2022/08/18 03:34:26;;;;;;;42.30;6.22;;;;;;;;;;5037555;28;20475;-66
2022/08/18 03:36:52;;;;;;;41.58;5.82;;;;;;;;;;5034456;28;20041;-49
2022/08/18 03:39:19;;;;;;;30.38;5.53;;;;;;;;;;5036367;28;20043;-51
2022/08/18 03:41:45;;;;;;;27.55;5.45;;;;;;;;;;5031256;28;20042;-65
2022/08/18 03:44:13;;;;;;;29.67;5.93;;;;;;;;;;5016834;28;20085;-51
2022/08/18 03:46:43;;;;;;;41.10;5.95;;;;;;;;;;5017783;28;20052;-60
2022/08/18 03:49:09;;;;;;;42.20;5.68;;;;;;;;;;5016461;28;20109;-64
2022/08/18 03:51:35;;;;;;;24.67;5.43;;;;;;;;;;5017380;28;20041;-48
2022/08/18 03:54:03;;;;;;;25.88;4.28;;;;;;;;;;5033792;28;20045;-59
2022/08/18 03:56:32;;;;;;;24.60;5.00;;;;;;;;;;5019193;28;20095;-62
2022/08/18 03:59:00;;;;;;;29.15;5.03;;;;;;;;;;5033203;28;20488;-63
2022/08/18 04:01:27;;;;;;;33.67;5.13;;;;;;;;;;5036262;28;20049;-54
2022/08/18 04:03:55;;;;;;;32.10;6.13;;;;;;;;;;5029692;28;20522;-55
2022/08/18 04:06:23;;;;;;;34.90;6.13;;;;;;;;;;5000081;28;20464;-54
2022/08/18 04:08:57;;;;;;;35.40;6.50;;;;;;;;;;5035324;28;20519;-54
2022/08/18 04:11:23;;;;;;;43.15;5.53;;;;;;;;;;5015457;28;20045;-55
2022/08/18 04:13:50;;;;;;;26.05;5.97;;;;;;;;;;5011373;28;20046;-52
2022/08/18 04:16:16;;;;;;;27.77;5.32;;;;;;;;;;5010871;28;20513;-51
2022/08/18 04:18:42;;;;;;;26.90;4.85;;;;;;;;;;5029115;28;20052;-51
2022/08/18 04:21:09;;;;;;;20.40;4.18;;;;;;;;;;5028626;28;20044;-49
2022/08/18 04:23:36;;;;;;;31.38;4.57;;;;;;;;;;5029048;28;20451;-54
2022/08/18 04:26:03;;;;;;;23.75;5.05;;;;;;;;;;5028641;28;20053;-53
2022/08/18 04:28:29;;;;;;;34.20;5.72;;;;;;;;;;5028756;28;20107;-67
2022/08/18 04:30:58;;;;;;;18.58;3.90;;;;;;;;;;5011611;28;20536;-48
2022/08/18 04:33:25;;;;;;;19.90;4.00;;;;;;;;;;5028203;28;20044;-59
2022/08/18 04:35:51;;;;;;;20.77;4.63;;;;;;;;;;5011044;28;20042;-57
2022/08/18 04:38:17;;;;;;;22.38;4.10;;;;;;;;;;5028099;28;20045;-60
2022/08/18 04:40:43;;;;;;;26.52;5.07;;;;;;;;;;5017259;28;20526;-52
2022/08/18 04:43:14;;;;;;;30.85;4.63;;;;;;;;;;5028189;28;20462;-55
2022/08/18 04:45:44;;;;;;;23.38;4.80;;;;;;;;;;5009069;28;20068;-55
2022/08/18 04:48:11;;;;;;;30.92;5.25;;;;;;;;;;4997430;28;20447;-49
2022/08/18 04:50:38;;;;;;;29.58;4.75;;;;;;;;;;5025933;28;20785;-66
2022/08/18 04:55:53;;;;;;;47.47;6.20;;;;;;;;;;5027281;28;20085;-61
2022/08/18 04:58:23;;;;;;;31.15;4.80;;;;;;;;;;5011183;28;20071;-54
2022/08/18 05:00:59;;;;;;;30.05;5.28;;;;;;;;;;5027482;28;20061;-61
2022/08/18 05:03:26;;;;;;;35.47;5.00;;;;;;;;;;5019286;28;20097;-54
2022/08/18 05:05:59;;;;;;;27.02;4.28;;;;;;;;;;5010565;28;20510;-51
2022/08/18 05:08:25;;;;;;;38.10;4.80;;;;;;;;;;5026481;28;20053;-52
2022/08/18 05:10:53;;;;;;;33.80;4.60;;;;;;;;;;5027935;28;20049;-56
2022/08/18 05:13:19;;;;;;;42.22;5.60;;;;;;;;;;5027440;28;20049;-50
2022/08/18 05:15:51;;;;;;;36.30;5.00;;;;;;;;;;5010436;28;20411;-64
2022/08/18 05:18:21;;;;;;;37.53;5.22;;;;;;;;;;5028180;28;20544;-56
2022/08/18 05:20:48;;;;;;;41.00;5.40;;;;;;;;;;5027788;28;20139;-51
2022/08/18 05:23:16;;;;;;;29.02;4.50;;;;;;;;;;5028451;28;20049;-59
2022/08/18 05:25:42;;;;;;;28.05;4.53;;;;;;;;;;5008818;28;20071;-55
2022/08/18 05:28:08;;;;;;;28.38;4.63;;;;;;;;;;5028151;28;20072;-59
2022/08/18 05:30:35;;;;;;;36.15;5.03;;;;;;;;;;5027557;28;20089;-53
2022/08/18 05:33:02;;;;;;;31.20;4.47;;;;;;;;;;5027753;28;20053;-64
2022/08/18 05:35:33;;;;;;;40.10;5.15;;;;;;;;;;5027761;28;20042;-47
2022/08/18 05:38:22;;;;;;;28.75;5.25;;;;;;;;;;5009283;28;20046;-60
2022/08/18 05:41:08;;;;;;;34.28;5.00;;;;;;;;;;5018910;28;20144;-49
2022/08/18 05:43:35;;;;;;;24.35;4.68;;;;;;;;;;5026752;28;20042;-50
2022/08/18 05:46:04;;;;;;;20.52;4.78;;;;;;;;;;5027571;28;20053;-63
2022/08/18 05:48:30;;;;;;;24.70;4.68;;;;;;;;;;5009882;28;20053;-53
2022/08/18 05:50:58;;;;;;;25.77;4.35;;;;;;;;;;5027294;28;20175;-56
2022/08/18 05:56:45;;;;;;;28.88;4.53;;;;;;;;;;5010067;28;20081;-50
2022/08/18 05:58:59;;;;;;;21.02;4.03;;;;;;;;;;5027456;28;20057;-52
2022/08/18 06:01:29;;;;;;;26.13;4.88;;;;;;;;;;5027028;28;20045;-50
2022/08/18 06:04:02;;;;;;;25.58;4.15;;;;;;;;;;5026619;28;20535;-51
2022/08/18 06:06:30;;;;;;;18.30;3.75;;;;;;;;;;5027825;28;20129;-55
2022/08/18 06:09:12;;;;;;;19.38;4.00;;;;;;;;;;5026312;28;20041;-50
2022/08/18 06:11:38;;;;;;;18.13;3.38;;;;;;;;;;5027787;28;20392;-60
2022/08/18 06:14:05;;;;;;;22.60;3.85;;;;;;;;;;5026972;28;20049;-48
2022/08/18 06:16:34;;;;;;;25.15;4.45;;;;;;;;;;5031068;28;20041;-54
2022/08/18 06:19:09;;;;;;;22.98;4.10;;;;;;;;;;5013840;28;20052;-49
2022/08/18 06:21:56;;;;;;;22.20;4.57;;;;;;;;;;5030892;28;20156;-54
2022/08/18 06:24:28;;;;;;;26.65;4.68;;;;;;;;;;5031561;28;20053;-54
2022/08/18 06:26:59;;;;;;;23.42;4.13;;;;;;;;;;5029324;28;20049;-54
2022/08/18 06:29:39;;;;;;;26.20;4.70;;;;;;;;;;5031533;28;20096;-53
2022/08/18 06:32:27;;;;;;;31.60;4.63;;;;;;;;;;5030869;28;20542;-50
2022/08/18 06:35:11;;;;;;;21.75;4.43;;;;;;;;;;5012083;28;20081;-51
2022/08/18 06:40:35;;;;;;;30.63;4.75;;;;;;;;;;5031570;28;20045;-51
2022/08/18 06:43:01;;;;;;;23.60;4.18;;;;;;;;;;5030390;28;20565;-60
2022/08/18 06:45:37;;;;;;;28.20;5.40;;;;;;;;;;5031480;28;20048;-50
2022/08/18 06:48:03;;;;;;;15.32;3.47;;;;;;;;;;5011453;28;20132;-64
2022/08/18 06:50:36;;;;;;;31.05;5.45;;;;;;;;;;5031516;28;20049;-58
2022/08/18 06:53:06;;;;;;;29.38;4.93;;;;;;;;;;5029585;28;20053;-53
2022/08/18 06:55:32;;;;;;;21.85;4.13;;;;;;;;;;5019906;28;20072;-54
2022/08/18 06:58:00;;;;;;;13.38;3.78;;;;;;;;;;5030708;28;20038;-49
2022/08/18 07:00:28;;;;;;;26.85;4.68;;;;;;;;;;5029290;28;20038;-62
2022/08/18 07:03:06;;;;;;;21.83;4.30;;;;;;;;;;5018834;28;20044;-51
2022/08/18 07:05:33;;;;;;;19.65;4.32;;;;;;;;;;5021551;28;20495;-55
2022/08/18 07:08:03;;;;;;;19.90;3.95;;;;;;;;;;5013163;28;20045;-49
2022/08/18 07:10:34;;;;;;;21.80;4.32;;;;;;;;;;5032162;28;21011;-51
2022/08/18 07:13:07;;;;;;;30.85;4.85;;;;;;;;;;5030268;28;20041;-61
2022/08/18 07:15:35;;;;;;;24.83;4.70;;;;;;;;;;5029668;28;20048;-60
2022/08/18 07:18:06;;;;;;;15.40;3.45;;;;;;;;;;5028454;28;20503;-55
2022/08/18 07:20:40;;;;;;;19.20;4.43;;;;;;;;;;5030097;28;20502;-57
2022/08/18 07:23:08;;;;;;;15.38;4.10;;;;;;;;;;5022967;28;20041;-51
2022/08/18 07:25:57;;;;;;;30.85;5.40;;;;;;;;;;5035707;28;20054;-60
2022/08/18 07:28:27;;;;;;;16.65;4.63;;;;;;;;;;5022974;28;20057;-51
2022/08/18 07:31:06;;;;;;;27.95;4.68;;;;;;;;;;5034677;28;20057;-63
2022/08/18 07:33:32;;;;;;;22.73;4.05;;;;;;;;;;5024186;28;20125;-49
2022/08/18 07:36:02;;;;;;;19.65;3.88;;;;;;;;;;5034416;28;20080;-51
2022/08/18 07:38:34;;;;;;;25.02;4.38;;;;;;;;;;5029210;28;20666;-54
2022/08/18 07:41:23;;;;;;;23.13;5.15;;;;;;;;;;5030518;28;20052;-49
2022/08/18 07:43:52;;;;;;;19.67;3.90;;;;;;;;;;5012182;28;20053;-59
2022/08/18 07:46:42;;;;;;;17.90;3.42;;;;;;;;;;5016758;28;20049;-58
2022/08/18 07:49:09;;;;;;;15.80;2.78;;;;;;;;;;5026531;28;20212;-55
2022/08/18 07:51:43;;;;;;;16.17;3.83;;;;;;;;;;5030647;28;20582;-57
2022/08/18 07:54:09;;;;;;;17.58;3.25;;;;;;;;;;5010807;28;20067;-57
2022/08/18 07:56:42;;;;;;;18.63;3.08;;;;;;;;;;5027846;28;20046;-52
2022/08/18 07:59:11;;;;;;;16.70;3.08;;;;;;;;;;5027874;28;20492;-58
2022/08/18 08:01:43;;;;;;;24.50;3.78;;;;;;;;;;5027649;28;20056;-51
2022/08/18 08:04:15;;;;;;;13.30;3.25;;;;;;;;;;5017062;28;20061;-65
2022/08/18 08:06:48;;;;;;;15.73;3.00;;;;;;;;;;5029700;28;20119;-57
2022/08/18 08:09:14;;;;;;;17.48;3.45;;;;;;;;;;4999357;28;20538;-53
2022/08/18 08:11:47;;;;;;;15.50;4.00;;;;;;;;;;5027042;28;20049;-63
2022/08/18 08:14:23;;;;;;;12.35;3.13;;;;;;;;;;5026277;28;20053;-64
2022/08/18 08:17:10;;;;;;;11.82;2.30;;;;;;;;;;5029560;28;20142;-55
2022/08/18 08:19:39;;;;;;;14.13;2.58;;;;;;;;;;5025607;28;20045;-54
2022/08/18 08:22:05;;;;;;;24.75;2.65;;;;;;;;;;5026379;28;20252;-58
2022/08/18 08:24:40;;;;;;;12.63;2.47;;;;;;;;;;5027217;28;20050;-54
2022/08/18 08:27:25;;;;;;;10.88;2.55;;;;;;;;;;5008112;28;20046;-59
2022/08/18 08:30:05;;;;;;;13.88;2.80;;;;;;;;;;5007396;28;20132;-64
2022/08/18 08:32:33;;;;;;;12.60;2.75;;;;;;;;;;5006649;28;20045;-56
2022/08/18 08:35:12;;;;;;;13.43;2.63;;;;;;;;;;5006534;28;20488;-58
2022/08/18 08:37:51;;;;;;;14.10;2.33;;;;;;;;;;5024906;28;20049;-59
2022/08/18 08:40:20;;;;;;;9.67;2.63;;;;;;;;;;4993295;28;20658;-62
2022/08/18 08:42:46;;;;;;;16.58;2.72;;;;;;;;;;5024999;28;20057;-64
2022/08/18 08:45:15;;;;;;;10.63;2.17;;;;;;;;;;5024458;28;20131;-55
2022/08/18 08:47:41;;;;;;;;;;;;;;;;;;5008910;28;20041;-61
2022/08/18 08:50:10;;;;;;;12.55;2.67;;;;;;;;;;5026349;28;19928;-55
2022/08/18 08:52:45;;;;;;;14.80;2.30;;;;;;;;;;5025772;28;20048;-59
2022/08/18 08:55:24;;;;;;;10.55;2.17;;;;;;;;;;5009268;28;20064;-59
2022/08/18 08:58:09;;;;;;;12.35;2.92;;;;;;;;;;5025663;28;20139;-59
2022/08/18 09:00:36;;;;;;;10.18;2.50;;;;;;;;;;5030183;28;20095;-64
2022/08/18 09:03:02;;;;;;;15.02;2.97;;;;;;;;;;5037797;28;20071;-56
2022/08/18 09:05:30;;;;;;;16.35;2.85;;;;;;;;;;5027059;28;20136;-62
2022/08/18 09:08:05;;;;;;;16.65;2.65;;;;;;;;;;5044331;28;20044;-58
2022/08/18 09:10:41;;;;;;;19.67;2.90;;;;;;;;;;5022630;28;20049;-56
2022/08/18 09:13:07;;;;;;;17.80;2.97;;;;;;;;;;5013456;28;20045;-55
2022/08/18 09:16:00;;;;;;;13.85;2.97;;;;;;;;;;5008900;28;20053;-59
2022/08/18 09:18:38;;;;;;;15.68;2.75;;;;;;;;;;5023222;28;20118;-66
2022/08/18 09:21:17;;;;;;;11.48;2.78;;;;;;;;;;4991770;28;20079;-55
2022/08/18 09:23:47;;;;;;;15.88;3.13;;;;;;;;;;5025969;28;20041;-59
2022/08/18 09:26:38;;;;;;;14.13;2.58;;;;;;;;;;5007116;28;20045;-57
2022/08/18 09:29:30;;;;;;;11.20;2.40;;;;;;;;;;4989073;28;20061;-60
2022/08/18 09:32:15;;;;;;;12.70;2.47;;;;;;;;;;4994321;28;20579;-65
2022/08/18 09:34:41;;;;;;;12.23;2.42;;;;;;;;;;5025198;28;20488;-59
2022/08/18 09:37:13;;;;;;;19.83;2.65;;;;;;;;;;5032817;28;20045;-56
2022/08/18 09:42:40;;;;;;;9.55;2.72;;;;;;;;;;5039476;28;20037;-61
2022/08/18 09:45:08;;;;;;;13.55;2.50;;;;;;;;;;4992425;28;20045;-56
2022/08/18 09:47:34;;;;;;;15.82;2.80;;;;;;;;;;5035193;28;20070;-59
2022/08/18 09:50:03;;;;;;;12.43;2.35;;;;;;;;;;5040846;28;20052;-55
2022/08/18 09:52:32;;;;;;;10.50;2.92;;;;;;;;;;5045066;28;20110;-55
2022/08/18 09:54:58;;;;;;;9.85;2.67;;;;;;;;;;5044137;28;20495;-62
2022/08/18 09:57:29;;;;;;;9.23;2.10;;;;;;;;;;5034726;28;20091;-64
2022/08/18 10:00:07;;;;;;;15.15;2.85;;;;;;;;;;5010754;28;20084;-55
2022/08/18 10:02:36;;;;;;;8.63;1.67;;;;;;;;;;5039065;28;20044;-63
2022/08/18 10:05:18;;;;;;;7.30;1.77;;;;;;;;;;5043481;28;20044;-62
2022/08/18 10:07:44;;;;;;;8.50;1.50;;;;;;;;;;5006286;28;20077;-55
2022/08/18 10:10:26;;;;;;;12.98;3.03;;;;;;;;;;5024239;28;20041;-65
2022/08/18 10:13:00;;;;;;;6.53;2.05;;;;;;;;;;5025717;28;20048;-61
2022/08/18 10:15:45;;;;;;;4.22;1.35;;;;;;;;;;5024819;28;20053;-59
2022/08/18 10:18:14;;;;;;;5.50;1.60;;;;;;;;;;5006337;28;20046;-54
2022/08/18 10:20:40;;;;;;;7.55;2.00;;;;;;;;;;5007382;28;20499;-57
2022/08/18 10:23:07;;;;;;;7.72;1.80;;;;;;;;;;5006957;28;20550;-62
2022/08/18 10:25:41;;;;;;;17.25;2.03;;;;;;;;;;5007892;28;20080;-60
2022/08/18 10:28:09;;;;;;;9.90;2.15;;;;;;;;;;5016571;28;20192;-62
2022/08/18 10:30:35;;;;;;;8.10;1.65;;;;;;;;;;4988215;28;20048;-61
2022/08/18 10:33:02;;;;;;;7.60;1.90;;;;;;;;;;5005384;28;20038;-56
2022/08/18 10:35:37;;;;;;;5.30;1.60;;;;;;;;;;5005280;28;20046;-59
2022/08/18 10:38:09;;;;;;;10.43;1.92;;;;;;;;;;5006702;28;20121;-61
2022/08/18 10:40:35;;;;;;;8.52;1.90;;;;;;;;;;5001564;28;20224;-55
2022/08/18 10:43:19;;;;;;;10.75;1.80;;;;;;;;;;4995619;28;20111;-67
2022/08/18 10:45:51;;;;;;;7.13;1.30;;;;;;;;;;4984316;28;20057;-62
2022/08/18 10:48:17;;;;;;;5.68;2.13;;;;;;;;;;4984161;28;20153;-61
2022/08/18 10:50:47;;;;;;;9.88;1.88;;;;;;;;;;5001494;28;20053;-62
2022/08/18 10:53:20;;;;;;;7.82;1.67;;;;;;;;;;5002390;28;20045;-67
2022/08/18 10:56:00;;;;;;;7.38;1.70;;;;;;;;;;5019302;28;20054;-66
2022/08/18 10:58:45;;;;;;;8.02;1.23;;;;;;;;;;4991256;28;20046;-60
2022/08/18 11:01:30;;;;;;;6.22;1.45;;;;;;;;;;5007482;28;20038;-65
2022/08/18 11:04:08;;;;;;;4.85;1.17;;;;;;;;;;4989861;28;20049;-59
2022/08/18 11:06:43;;;;;;;6.32;1.25;;;;;;;;;;5008268;28;20050;-64
2022/08/18 11:09:10;;;;;;;3.47;1.38;;;;;;;;;;4990569;28;20046;-65
2022/08/18 11:11:42;;;;;;;4.78;1.20;;;;;;;;;;5008213;28;20441;-60
2022/08/18 11:14:22;;;;;;;7.82;1.50;;;;;;;;;;4979107;28;20051;-59
2022/08/18 11:16:48;;;;;;;;;;;;;;;;;;4999884;28;20053;-62
2022/08/18 11:19:15;;;;;;;4.55;1.23;;;;;;;;;;4981276;28;19952;-58
2022/08/18 11:21:45;;;;;;;3.00;1.15;;;;;;;;;;5008824;28;20616;-57
2022/08/18 11:24:16;;;;;;;6.05;1.55;;;;;;;;;;4995353;28;20501;-61
2022/08/18 11:26:45;;;;;;;6.43;1.10;;;;;;;;;;5005325;28;20046;-60
2022/08/18 11:29:20;;;;;;;6.57;1.42;;;;;;;;;;5012953;28;20492;-59
2022/08/18 11:31:52;;;;;;;3.50;1.17;;;;;;;;;;5019708;28;20050;-63
2022/08/18 11:34:22;;;;;;;1.88;1.00;;;;;;;;;;5010152;28;20037;-60
2022/08/18 11:36:56;;;;;;;5.65;1.75;;;;;;;;;;5014236;28;20421;-60
2022/08/18 11:39:23;;;;;;;8.50;1.35;;;;;;;;;;5033478;28;20275;-66
2022/08/18 11:41:49;;;;;;;2.78;1.15;;;;;;;;;;5013005;28;20057;-58
2022/08/18 11:44:23;;;;;;;8.05;1.30;;;;;;;;;;5029965;28;20052;-64
2022/08/18 11:46:53;;;;;;;3.83;1.20;;;;;;;;;;5016861;28;20050;-62
2022/08/18 11:49:25;;;;;;;3.45;1.10;;;;;;;;;;5018373;28;20411;-58
2022/08/18 11:52:24;;;;;;;1.58;0.80;;;;;;;;;;5026013;28;20041;-62
2022/08/18 11:54:52;;;;;;;7.40;1.13;;;;;;;;;;4967190;28;20057;-60
2022/08/18 11:57:28;;;;;;;4.15;0.88;;;;;;;;;;5024043;28;20037;-65
2022/08/18 11:59:55;;;;;;;6.20;1.10;;;;;;;;;;5026393;28;20041;-63
2022/08/18 12:02:24;;;;;;;3.78;1.10;;;;;;;;;;5007407;28;20034;-67
2022/08/18 12:04:51;;;;;;;3.70;0.93;;;;;;;;;;4993318;28;20057;-59
2022/08/18 12:07:25;;;;;;;3.35;1.52;;;;;;;;;;5026320;28;20087;-61
2022/08/18 12:10:11;;;;;;;3.70;1.00;;;;;;;;;;5009229;28;20077;-59
2022/08/18 12:12:46;;;;;;;3.58;0.82;;;;;;;;;;5007016;28;20041;-56
2022/08/18 12:15:31;;;;;;;2.17;0.90;;;;;;;;;;5010902;28;20043;-65
2022/08/18 12:17:58;;;;;;;4.30;1.30;;;;;;;;;;5028824;28;20099;-62
2022/08/18 12:20:24;;;;;;;3.88;1.23;;;;;;;;;;5026999;28;20052;-56
2022/08/18 12:22:52;;;;;;;5.85;1.40;;;;;;;;;;5025970;28;20072;-67
2022/08/18 12:25:19;;;;;;;4.32;1.20;;;;;;;;;;4991750;28;20060;-63
2022/08/18 12:27:47;;;;;;;2.50;1.30;;;;;;;;;;5025673;28;20104;-60
2022/08/18 12:30:16;;;;;;;6.30;1.70;;;;;;;;;;5023343;28;20084;-67
2022/08/18 12:32:43;;;;;;;3.25;0.98;;;;;;;;;;5030016;28;20064;-66
2022/08/18 12:35:10;;;;;;;5.70;1.35;;;;;;;;;;5032152;28;20385;-59
2022/08/18 12:37:37;;;;;;;3.95;1.17;;;;;;;;;;5034013;28;20033;-58
2022/08/18 12:40:04;;;;;;;4.00;1.30;;;;;;;;;;5028982;28;20383;-60
2022/08/18 12:42:30;;;;;;;5.20;1.13;;;;;;;;;;5025708;28;20247;-65
2022/08/18 12:44:56;;;;;;;3.22;1.23;;;;;;;;;;5008242;28;20041;-65
2022/08/18 12:47:24;;;;;;;2.00;1.00;;;;;;;;;;5026518;28;20049;-66
2022/08/18 12:49:50;;;;;;;7.95;1.20;;;;;;;;;;5008662;28;20049;-57
2022/08/18 12:52:16;;;;;;;4.32;1.30;;;;;;;;;;5027150;28;20042;-57
2022/08/18 12:54:45;;;;;;;2.05;1.33;;;;;;;;;;5024367;28;20041;-68
2022/08/18 12:57:16;;;;;;;7.45;1.67;;;;;;;;;;5026787;28;20555;-69
2022/08/18 12:59:42;;;;;;;4.13;1.30;;;;;;;;;;5030848;28;20511;-67
2022/08/18 13:02:10;;;;;;;3.83;1.20;;;;;;;;;;5009066;28;20037;-60
2022/08/18 13:04:38;;;;;;;3.72;1.27;;;;;;;;;;5026336;28;20740;-68
2022/08/18 13:07:18;;;;;;;3.75;1.33;;;;;;;;;;5020198;28;20495;-60
2022/08/18 13:09:44;;;;;;;2.97;1.20;;;;;;;;;;5006134;28;20127;-61
2022/08/18 13:12:12;;;;;;;2.35;1.23;;;;;;;;;;5021084;28;20041;-66
2022/08/18 13:14:39;;;;;;;5.97;1.35;;;;;;;;;;5031177;28;20041;-62
2022/08/18 13:17:05;;;;;;;2.20;1.25;;;;;;;;;;5032995;28;20155;-61
2022/08/18 13:19:31;;;;;;;2.45;1.20;;;;;;;;;;4995670;28;20046;-60
2022/08/18 13:21:58;;;;;;;5.03;1.20;;;;;;;;;;5030248;28;20406;-57
2022/08/18 13:24:24;;;;;;;4.57;1.52;;;;;;;;;;5017117;28;20045;-62
2022/08/18 13:26:50;;;;;;;3.95;1.23;;;;;;;;;;5032795;28;20132;-65
2022/08/18 13:29:18;;;;;;;3.13;1.00;;;;;;;;;;5034839;28;20099;-59
2022/08/18 13:31:45;;;;;;;2.33;1.08;;;;;;;;;;5027815;28;21670;-66
2022/08/18 13:34:12;;;;;;;5.65;1.30;;;;;;;;;;5030961;28;20041;-63
2022/08/18 13:36:44;;;;;;;5.60;1.88;;;;;;;;;;5008851;28;20428;-63
2022/08/18 13:39:14;;;;;;;2.38;1.25;;;;;;;;;;5037079;28;20053;-64
2022/08/18 13:41:42;;;;;;;6.95;1.95;;;;;;;;;;5028027;28;20045;-69
2022/08/18 13:44:11;;;;;;;7.00;1.45;;;;;;;;;;5026385;28;20104;-59
2022/08/18 13:46:44;;;;;;;3.40;0.80;;;;;;;;;;5018017;28;20684;-61
2022/08/18 13:49:11;;;;;;;3.55;0.85;;;;;;;;;;5003851;28;20454;-68
2022/08/18 13:51:37;;;;;;;2.75;1.02;;;;;;;;;;4977644;28;20050;-61
2022/08/18 13:54:03;;;;;;;2.72;0.90;;;;;;;;;;5019780;28;20091;-67
2022/08/18 13:56:29;;;;;;;5.15;1.00;;;;;;;;;;5005402;28;20038;-61
2022/08/18 13:58:55;;;;;;;3.40;1.30;;;;;;;;;;5026167;28;20133;-65
2022/08/18 14:01:22;;;;;;;1.88;0.80;;;;;;;;;;5006891;28;20049;-64
2022/08/18 14:03:48;;;;;;;3.53;1.10;;;;;;;;;;5024219;28;20629;-69
2022/08/18 14:06:16;;;;;;;1.33;0.80;;;;;;;;;;4990452;28;20048;-63
2022/08/18 14:08:42;;;;;;;2.15;0.90;;;;;;;;;;5023354;28;20044;-64
2022/08/18 14:11:09;;;;;;;1.80;0.60;;;;;;;;;;5018574;28;20378;-63
2022/08/18 14:13:35;;;;;;;3.72;0.90;;;;;;;;;;4995954;28;20045;-61
2022/08/18 14:16:01;;;;;;;5.20;1.02;;;;;;;;;;4989174;28;20052;-64
2022/08/18 14:18:28;;;;;;;2.70;0.90;;;;;;;;;;5014183;28;20045;-64
2022/08/18 14:27:01;;;;;;;1.67;0.80;;;;;;;;;;5005677;28;20049;-64
2022/08/18 14:29:29;;;;;;;2.13;0.85;;;;;;;;;;5019003;28;20058;-59
2022/08/18 14:31:55;;;;;;;3.33;0.77;;;;;;;;;;5032311;28;20104;-60
2022/08/18 14:34:21;;;;;;;1.70;0.80;;;;;;;;;;5024050;28;20069;-61
2022/08/18 14:36:47;;;;;;;2.70;0.85;;;;;;;;;;5011833;28;20041;-63
2022/08/18 14:39:14;;;;;;;2.75;1.02;;;;;;;;;;4997142;28;20060;-60
2022/08/18 14:41:40;;;;;;;4.07;0.70;;;;;;;;;;5032257;28;20126;-58
2022/08/18 14:44:24;;;;;;;1.90;1.00;;;;;;;;;;5033019;28;20099;-63
2022/08/18 14:46:51;;;;;;;1.98;0.80;;;;;;;;;;5036102;28;20059;-61
2022/08/18 14:49:17;;;;;;;1.58;0.80;;;;;;;;;;5035134;28;20093;-61
2022/08/18 14:51:43;;;;;;;1.63;0.80;;;;;;;;;;5015121;28;20507;-61
2022/08/18 14:54:10;;;;;;;4.45;0.75;;;;;;;;;;5012743;28;20057;-66
2022/08/18 14:56:37;;;;;;;2.15;0.80;;;;;;;;;;5008972;28;20575;-63
2022/08/18 14:59:06;;;;;;;1.67;0.80;;;;;;;;;;5007099;28;20041;-65
2022/08/18 15:01:33;;;;;;;2.13;0.90;;;;;;;;;;5007458;28;20060;-69
2022/08/18 15:03:59;;;;;;;2.25;0.70;;;;;;;;;;5008023;28;20060;-64
2022/08/18 15:06:26;;;;;;;1.52;0.80;;;;;;;;;;5026944;28;20052;-66
2022/08/18 15:08:52;;;;;;;4.40;1.08;;;;;;;;;;5025444;28;20140;-61
2022/08/18 15:11:19;;;;;;;2.28;0.88;;;;;;;;;;5008478;28;20056;-63
2022/08/18 15:13:45;;;;;;;2.50;0.80;;;;;;;;;;5026129;28;20068;-68
2022/08/18 15:16:15;;;;;;;1.33;0.70;;;;;;;;;;5027352;28;20045;-65